Time;durP1;ratioP1;P1;durP2;ratioP2;P2;SDS_P1;SDS_P2;PMS_P1;PMS_P2;Temp;Humidity;BMP_temperature;BMP_pressure;BME280_temperature;BME280_humidity;BME280_pressure;Samples;Min_cycle;Max_cycle;Signal;HPM_P1;HPM_P2
2022/01/25 00:10:15;;;;;;;63.67;32.47;;;4.80;99.90;;;;;;4979097;28;20293;-61
2022/01/25 00:16:01;;;;;;;67.60;33.77;;;4.80;99.90;;;;;;4968805;28;20222;-61
2022/01/25 00:26:41;;;;;;;72.30;33.33;;;4.80;99.90;;;;;;4981919;28;20205;-60
2022/01/25 00:29:12;;;;;;;72.80;34.53;;;4.90;99.90;;;;;;4992249;28;20265;-61
2022/01/25 00:31:41;;;;;;;77.23;35.53;;;4.80;99.90;;;;;;4954493;28;20207;-59
2022/01/25 00:34:09;;;;;;;71.83;34.20;;;4.80;99.90;;;;;;4993070;28;20689;-61
2022/01/25 00:36:36;;;;;;;72.13;33.17;;;4.80;99.90;;;;;;4989632;28;20211;-60
2022/01/25 00:39:05;;;;;;;72.27;33.00;;;4.80;99.90;;;;;;4990157;28;20203;-60
2022/01/25 00:41:32;;;;;;;67.83;32.60;;;4.80;99.90;;;;;;4985325;28;20230;-60
2022/01/25 00:44:01;;;;;;;71.63;35.73;;;4.80;99.90;;;;;;4983240;28;20210;-60
2022/01/25 00:46:28;;;;;;;74.57;33.97;;;4.80;99.90;;;;;;4968299;28;20210;-60
2022/01/25 00:49:00;;;;;;;71.93;34.90;;;4.70;99.90;;;;;;4979202;28;20207;-60
2022/01/25 00:54:26;;;;;;;72.63;35.07;;;4.80;99.90;;;;;;4989336;28;20201;-60
2022/01/25 00:56:54;;;;;;;73.13;34.23;;;4.80;99.90;;;;;;4984831;28;20223;-60
2022/01/25 00:59:23;;;;;;;72.87;35.23;;;4.80;99.90;;;;;;4986552;28;20302;-60
2022/01/25 01:01:52;;;;;;;68.03;34.40;;;4.80;99.90;;;;;;4968090;28;20238;-60
2022/01/25 01:04:20;;;;;;;69.50;34.00;;;4.80;99.90;;;;;;4965996;28;20322;-60
2022/01/25 01:06:49;;;;;;;75.93;33.77;;;4.70;99.90;;;;;;4988619;28;20199;-60
2022/01/25 01:09:17;;;;;;;66.53;33.03;;;4.80;99.90;;;;;;4986409;28;20210;-60
2022/01/25 01:11:51;;;;;;;75.93;33.73;;;4.80;99.90;;;;;;4986810;28;20305;-60
2022/01/25 01:14:26;;;;;;;71.83;33.73;;;4.70;99.90;;;;;;4970669;28;20197;-60
2022/01/25 01:30:46;;;;;;;67.70;32.90;;;4.80;99.90;;;;;;4973781;28;20297;-60
2022/01/25 01:33:41;;;;;;;70.43;33.70;;;4.70;99.90;;;;;;4974448;28;20203;-60
2022/01/25 01:39:38;;;;;;;67.97;32.90;;;4.80;99.90;;;;;;4980263;28;20199;-61
2022/01/25 01:42:35;;;;;;;70.20;32.00;;;4.80;99.90;;;;;;4990881;28;20339;-61
2022/01/25 01:45:25;;;;;;;64.70;31.13;;;4.70;99.90;;;;;;4958414;28;20276;-59
2022/01/25 01:48:00;;;;;;;71.73;33.37;;;4.70;99.90;;;;;;4985779;28;20204;-61
2022/01/25 01:50:29;;;;;;;63.87;32.23;;;4.70;99.90;;;;;;4959614;28;20220;-61
2022/01/25 01:52:57;;;;;;;62.23;32.73;;;4.70;99.90;;;;;;4991450;28;21106;-62
2022/01/25 01:55:26;;;;;;;63.07;32.73;;;4.70;99.90;;;;;;4969878;28;20207;-61
2022/01/25 01:57:54;;;;;;;61.53;31.00;;;4.70;99.90;;;;;;4985856;28;20213;-61
2022/01/25 02:00:24;;;;;;;68.97;32.43;;;4.70;99.90;;;;;;4969620;28;20293;-61
2022/01/25 02:02:51;;;;;;;63.93;31.37;;;4.70;99.90;;;;;;4977807;28;20231;-61
2022/01/25 02:05:18;;;;;;;64.63;31.90;;;4.70;99.90;;;;;;4970715;28;20211;-59
2022/01/25 02:07:45;;;;;;;64.60;33.10;;;4.70;99.90;;;;;;4972074;28;20219;-61
2022/01/25 02:10:12;;;;;;;66.30;32.33;;;4.70;99.90;;;;;;4973326;28;20246;-59
2022/01/25 02:12:45;;;;;;;59.23;30.80;;;4.60;99.90;;;;;;4984864;28;20199;-59
2022/01/25 02:15:13;;;;;;;63.43;32.87;;;4.70;99.90;;;;;;4988022;28;20226;-61
2022/01/25 02:17:57;;;;;;;63.97;31.83;;;4.70;99.90;;;;;;4974437;28;20293;-60
2022/01/25 02:23:18;;;;;;;64.70;31.23;;;4.70;99.90;;;;;;4981818;28;20240;-60
2022/01/25 02:25:45;;;;;;;65.80;32.00;;;4.70;99.90;;;;;;4984988;28;20210;-60
2022/01/25 02:28:13;;;;;;;62.20;30.53;;;4.70;99.90;;;;;;4979782;28;20202;-60
2022/01/25 02:30:41;;;;;;;66.30;32.87;;;4.80;99.90;;;;;;4981286;28;20680;-60
2022/01/25 02:33:08;;;;;;;68.23;32.47;;;4.70;99.90;;;;;;4991547;28;20207;-59
2022/01/25 02:35:37;;;;;;;65.23;32.50;;;4.70;99.90;;;;;;4977827;28;20210;-60
2022/01/25 02:38:04;;;;;;;67.97;32.97;;;4.70;99.90;;;;;;4977116;28;20211;-60
2022/01/25 02:40:31;;;;;;;63.67;32.17;;;4.70;99.90;;;;;;4968420;28;20213;-60
2022/01/25 02:42:58;;;;;;;69.43;32.17;;;4.70;99.90;;;;;;4994007;28;20227;-60
2022/01/25 02:45:31;;;;;;;65.73;31.70;;;4.70;99.90;;;;;;4981407;28;20204;-60
2022/01/25 02:50:45;;;;;;;65.43;31.57;;;4.70;99.90;;;;;;4991992;28;20628;-62
2022/01/25 02:53:12;;;;;;;63.80;30.53;;;4.70;99.90;;;;;;4974407;28;20214;-59
2022/01/25 02:55:40;;;;;;;66.60;32.47;;;4.70;99.90;;;;;;4981157;28;20681;-59
2022/01/25 02:58:08;;;;;;;57.27;31.23;;;4.60;99.90;;;;;;4984628;28;20199;-59
2022/01/25 03:00:36;;;;;;;64.13;31.07;;;4.70;99.90;;;;;;4969100;28;20352;-61
2022/01/25 03:03:03;;;;;;;67.33;33.10;;;4.60;99.90;;;;;;4989564;28;20227;-59
2022/01/25 03:05:30;;;;;;;59.40;30.63;;;4.70;99.90;;;;;;4984510;28;20207;-60
2022/01/25 03:07:59;;;;;;;65.40;31.67;;;4.70;99.90;;;;;;4994880;28;20302;-61
2022/01/25 03:10:36;;;;;;;62.87;29.70;;;4.70;99.90;;;;;;4958926;28;20991;-61
2022/01/25 03:13:04;;;;;;;59.37;29.13;;;4.70;99.90;;;;;;4982683;28;20356;-61
2022/01/25 03:15:53;;;;;;;60.70;29.53;;;4.60;99.90;;;;;;4985140;28;20211;-59
2022/01/25 03:18:37;;;;;;;61.67;30.47;;;4.70;99.90;;;;;;4984735;28;20708;-61
2022/01/25 03:21:18;;;;;;;59.13;29.47;;;4.70;99.90;;;;;;4983858;28;20203;-61
2022/01/25 03:23:47;;;;;;;59.00;30.00;;;4.70;99.90;;;;;;4983698;28;20203;-62
2022/01/25 03:26:15;;;;;;;59.20;30.07;;;4.70;99.90;;;;;;4965952;28;20211;-61
2022/01/25 03:28:42;;;;;;;63.73;31.13;;;4.70;99.90;;;;;;4967233;28;20242;-59
2022/01/25 03:31:09;;;;;;;66.97;31.53;;;4.70;99.90;;;;;;4988627;28;20286;-61
2022/01/25 03:33:37;;;;;;;55.97;28.23;;;4.60;99.90;;;;;;4988209;28;20695;-62
2022/01/25 03:36:05;;;;;;;58.27;30.03;;;4.70;99.90;;;;;;4988415;28;20202;-61
2022/01/25 03:38:32;;;;;;;62.33;31.77;;;4.70;99.90;;;;;;4990028;28;20197;-61
2022/01/25 03:41:00;;;;;;;57.57;30.37;;;4.70;99.90;;;;;;4950006;28;20231;-61
2022/01/25 03:43:27;;;;;;;55.93;30.13;;;4.70;99.90;;;;;;4974437;28;20226;-61
2022/01/25 03:46:01;;;;;;;55.90;30.27;;;4.70;99.90;;;;;;4981625;28;20206;-61
2022/01/25 03:51:13;;;;;;;59.87;30.67;;;4.70;99.90;;;;;;4990022;28;20365;-61
2022/01/25 03:53:39;;;;;;;58.97;30.10;;;4.60;99.90;;;;;;4988371;28;20903;-61
2022/01/25 03:56:08;;;;;;;62.97;30.97;;;4.70;99.90;;;;;;4958137;28;20580;-61
2022/01/25 03:58:35;;;;;;;59.67;30.70;;;4.70;99.90;;;;;;4972817;28;20233;-61
2022/01/25 04:01:02;;;;;;;59.27;28.77;;;4.70;99.90;;;;;;4982544;28;20313;-61
2022/01/25 04:03:33;;;;;;;61.27;29.80;;;4.70;99.90;;;;;;4983617;28;20237;-61
2022/01/25 04:06:02;;;;;;;59.87;30.67;;;4.60;99.90;;;;;;4976713;28;20207;-61
2022/01/25 04:08:28;;;;;;;57.67;30.03;;;4.70;99.90;;;;;;4989413;28;20199;-61
2022/01/25 04:10:55;;;;;;;61.90;29.40;;;4.60;99.90;;;;;;4982661;28;20639;-61
2022/01/25 04:13:24;;;;;;;58.97;30.20;;;4.60;99.90;;;;;;4965631;28;20779;-61
2022/01/25 04:15:54;;;;;;;67.03;29.30;;;4.60;99.90;;;;;;4972995;28;20211;-61
2022/01/25 04:18:30;;;;;;;59.70;30.10;;;4.60;99.90;;;;;;4974717;28;20405;-62
2022/01/25 04:21:05;;;;;;;57.27;30.27;;;4.60;99.90;;;;;;4978295;28;20293;-61
2022/01/25 04:26:16;;;;;;;54.40;27.97;;;4.60;99.90;;;;;;4981307;28;20265;-61
2022/01/25 04:28:45;;;;;;;57.57;28.77;;;4.60;99.90;;;;;;4966104;28;21051;-60
2022/01/25 04:31:14;;;;;;;54.83;28.70;;;4.60;99.90;;;;;;4987194;28;20296;-60
2022/01/25 04:33:44;;;;;;;54.83;28.27;;;4.60;99.90;;;;;;4970325;28;20633;-59
2022/01/25 04:36:38;;;;;;;53.77;27.87;;;4.60;99.90;;;;;;4975582;28;20215;-60
2022/01/25 04:48:54;;;;;;;61.13;28.07;;;4.60;99.90;;;;;;4975327;28;20741;-59
2022/01/25 04:50:46;;;;;;;52.23;28.47;;;4.60;99.90;;;;;;4985413;28;20214;-59
2022/01/25 04:53:21;;;;;;;51.63;27.40;;;4.70;99.90;;;;;;4975272;28;20329;-59
2022/01/25 04:55:54;;;;;;;56.73;28.57;;;4.60;99.90;;;;;;4986440;28;20265;-59
2022/01/25 04:58:27;;;;;;;56.73;27.67;;;4.60;99.90;;;;;;4953180;28;20300;-59
2022/01/25 05:00:56;;;;;;;57.73;28.60;;;4.60;99.90;;;;;;4958712;28;20780;-60
2022/01/25 05:03:27;;;;;;;52.53;27.87;;;4.60;99.90;;;;;;4991177;28;20320;-62
2022/01/25 05:05:59;;;;;;;55.13;27.60;;;4.60;99.90;;;;;;4973783;28;20232;-60
2022/01/25 05:08:35;;;;;;;47.90;27.57;;;4.60;99.90;;;;;;4973465;28;20306;-60
2022/01/25 05:11:07;;;;;;;59.57;27.03;;;4.70;99.90;;;;;;4978494;28;20306;-61
2022/01/25 05:13:45;;;;;;;58.53;27.87;;;4.70;99.90;;;;;;4965291;28;20240;-59
2022/01/25 05:16:28;;;;;;;53.63;27.53;;;4.70;99.90;;;;;;4979865;28;20238;-61
2022/01/25 05:19:04;;;;;;;51.30;28.50;;;4.60;99.90;;;;;;4989019;28;20676;-61
2022/01/25 05:24:16;;;;;;;53.57;26.53;;;4.60;99.90;;;;;;4971950;28;20233;-60
2022/01/25 05:26:43;;;;;;;53.63;27.03;;;4.60;99.90;;;;;;4981828;28;20206;-59
2022/01/25 05:29:10;;;;;;;50.27;25.80;;;4.70;99.90;;;;;;4932761;28;20678;-59
2022/01/25 05:31:40;;;;;;;56.07;27.23;;;4.60;99.90;;;;;;4973738;28;20219;-61
2022/01/25 05:34:08;;;;;;;51.93;26.30;;;4.70;99.90;;;;;;4975915;28;20233;-59
2022/01/25 05:36:35;;;;;;;53.43;28.27;;;4.70;99.90;;;;;;4972119;28;20236;-60
2022/01/25 05:39:09;;;;;;;52.40;25.90;;;4.70;99.90;;;;;;4977297;28;20289;-59
2022/01/25 05:41:36;;;;;;;53.77;26.93;;;4.70;99.90;;;;;;4992624;28;20223;-59
2022/01/25 05:47:05;;;;;;;44.97;25.20;;;4.80;99.90;;;;;;4992824;28;20231;-59
2022/01/25 05:49:34;;;;;;;49.20;26.23;;;4.70;99.90;;;;;;4986961;28;20743;-61
2022/01/25 05:52:03;;;;;;;51.10;25.63;;;4.70;99.90;;;;;;4975593;28;20792;-59
2022/01/25 05:54:30;;;;;;;53.80;27.43;;;4.70;99.90;;;;;;4973078;28;20863;-60
2022/01/25 05:56:57;;;;;;;51.97;26.07;;;4.60;99.90;;;;;;4966046;28;20235;-60
2022/01/25 05:59:24;;;;;;;55.80;27.30;;;4.70;99.90;;;;;;4960397;28;20317;-60
2022/01/25 06:01:53;;;;;;;55.43;27.23;;;4.70;99.90;;;;;;4969346;28;20229;-60
2022/01/25 06:04:21;;;;;;;51.30;26.40;;;4.70;99.90;;;;;;4973858;28;20249;-60
2022/01/25 06:06:48;;;;;;;52.23;25.40;;;4.70;99.90;;;;;;4951894;28;20238;-60
2022/01/25 06:09:15;;;;;;;55.87;27.13;;;4.70;99.90;;;;;;4968803;28;20231;-60
2022/01/25 06:11:42;;;;;;;54.67;26.10;;;4.60;99.90;;;;;;4964773;28;20234;-59
2022/01/25 06:14:09;;;;;;;51.47;26.17;;;4.70;99.90;;;;;;4969963;28;20245;-60
2022/01/25 06:16:36;;;;;;;48.10;25.27;;;4.70;99.90;;;;;;4963270;28;20246;-61
2022/01/25 06:19:05;;;;;;;46.83;25.00;;;4.80;99.90;;;;;;4981978;28;20229;-59
2022/01/25 06:21:32;;;;;;;48.57;24.70;;;4.70;99.90;;;;;;4976474;28;20191;-59
2022/01/25 06:23:59;;;;;;;45.30;25.23;;;4.70;99.90;;;;;;4992193;28;20908;-61
2022/01/25 06:26:26;;;;;;;51.23;26.00;;;4.70;99.90;;;;;;4978115;28;20222;-60
2022/01/25 06:28:53;;;;;;;44.10;24.23;;;4.90;99.90;;;;;;4978472;28;20273;-61
2022/01/25 06:31:20;;;;;;;46.77;25.57;;;4.90;99.90;;;;;;4936892;28;20214;-61
2022/01/25 06:33:48;;;;;;;49.87;25.20;;;4.80;99.90;;;;;;4988700;28;20211;-60
2022/01/25 06:36:18;;;;;;;57.13;25.23;;;4.80;99.90;;;;;;4975862;28;20217;-61
2022/01/25 06:38:45;;;;;;;51.33;26.23;;;4.70;99.90;;;;;;4978077;28;20678;-61
2022/01/25 06:41:14;;;;;;;49.90;25.93;;;4.70;99.90;;;;;;4982855;28;20214;-61
2022/01/25 06:43:41;;;;;;;54.33;26.07;;;4.80;99.90;;;;;;4990851;28;20258;-61
2022/01/25 06:46:08;;;;;;;51.20;26.07;;;4.70;99.90;;;;;;4960816;28;20213;-59
2022/01/25 06:48:36;;;;;;;51.90;26.50;;;4.70;99.90;;;;;;4980457;28;20207;-61
2022/01/25 06:51:03;;;;;;;55.70;26.27;;;4.70;99.90;;;;;;4994914;28;20199;-62
2022/01/25 06:53:31;;;;;;;55.80;25.93;;;4.70;99.90;;;;;;4974998;28;20673;-61
2022/01/25 06:55:58;;;;;;;50.93;24.90;;;4.70;99.90;;;;;;4973985;28;20607;-61
2022/01/25 06:58:25;;;;;;;47.50;25.40;;;4.70;99.90;;;;;;4981576;28;20248;-61
2022/01/25 07:00:52;;;;;;;48.37;25.20;;;4.70;99.90;;;;;;4970163;28;20227;-61
2022/01/25 07:03:19;;;;;;;48.27;25.80;;;4.70;99.90;;;;;;4978595;28;20223;-61
2022/01/25 07:05:46;;;;;;;53.00;26.00;;;4.70;99.90;;;;;;4978034;28;20213;-61
2022/01/25 07:08:12;;;;;;;52.70;24.50;;;4.70;99.90;;;;;;4975133;28;20207;-60
2022/01/25 07:10:41;;;;;;;51.03;26.30;;;4.70;99.90;;;;;;4994186;28;20201;-60
2022/01/25 07:13:08;;;;;;;48.30;24.43;;;4.70;99.90;;;;;;4983296;28;20217;-60
2022/01/25 07:15:35;;;;;;;64.23;27.30;;;4.70;99.90;;;;;;4989703;28;20871;-60
2022/01/25 07:18:01;;;;;;;43.77;23.97;;;4.70;99.90;;;;;;4975326;28;20222;-60
2022/01/25 07:20:29;;;;;;;48.57;26.53;;;4.70;99.90;;;;;;4972344;28;20227;-60
2022/01/25 07:22:56;;;;;;;49.13;25.13;;;4.70;99.90;;;;;;4974976;28;20241;-60
2022/01/25 07:25:25;;;;;;;52.57;25.77;;;4.70;99.90;;;;;;4982721;28;20314;-60
2022/01/25 07:27:54;;;;;;;49.27;23.80;;;4.70;99.90;;;;;;4978714;28;20662;-60
2022/01/25 07:30:21;;;;;;;45.23;25.17;;;4.80;99.90;;;;;;4981993;28;20222;-60
2022/01/25 07:32:48;;;;;;;50.27;26.00;;;4.80;99.90;;;;;;4963106;28;20969;-61
2022/01/25 07:35:17;;;;;;;50.47;25.47;;;4.70;99.90;;;;;;4985193;28;20691;-61
2022/01/25 07:37:44;;;;;;;57.97;27.10;;;4.80;99.90;;;;;;4983053;28;20612;-60
2022/01/25 07:40:13;;;;;;;49.00;25.07;;;4.80;99.90;;;;;;4976786;28;20983;-60
2022/01/25 07:42:41;;;;;;;47.57;24.50;;;4.70;99.90;;;;;;4959180;28;20218;-60
2022/01/25 07:45:11;;;;;;;54.73;26.70;;;4.70;99.90;;;;;;4985959;28;20323;-60
2022/01/25 07:47:39;;;;;;;45.17;23.60;;;4.70;99.90;;;;;;4971665;28;20219;-61
2022/01/25 07:50:08;;;;;;;46.93;25.17;;;4.80;99.90;;;;;;4961344;28;20232;-60
2022/01/25 07:52:35;;;;;;;46.40;24.83;;;4.80;99.90;;;;;;4973476;28;20223;-60
2022/01/25 07:55:02;;;;;;;46.50;24.20;;;4.80;99.90;;;;;;4979057;28;20626;-60
2022/01/25 07:57:29;;;;;;;49.00;24.03;;;4.80;99.90;;;;;;4988693;28;20943;-60
2022/01/25 07:59:57;;;;;;;54.83;24.30;;;4.80;99.90;;;;;;4980545;28;20211;-61
2022/01/25 08:02:25;;;;;;;53.53;24.80;;;4.80;99.90;;;;;;4980276;28;20207;-60
2022/01/25 08:04:52;;;;;;;46.43;24.33;;;4.80;99.90;;;;;;4971567;28;20292;-60
2022/01/25 08:07:20;;;;;;;49.27;24.93;;;4.80;99.90;;;;;;4979465;28;20222;-60
2022/01/25 08:09:47;;;;;;;46.67;25.03;;;4.80;99.90;;;;;;4987901;28;20217;-61
2022/01/25 08:12:15;;;;;;;49.37;24.07;;;4.80;99.90;;;;;;4969592;28;20225;-62
2022/01/25 08:14:43;;;;;;;55.43;24.87;;;4.80;99.90;;;;;;4975564;28;20766;-61
2022/01/25 08:17:11;;;;;;;44.60;24.93;;;4.80;99.90;;;;;;4977577;28;20203;-60
2022/01/25 08:19:43;;;;;;;47.77;25.00;;;4.70;99.90;;;;;;4977827;28;20230;-60
2022/01/25 08:22:10;;;;;;;49.37;24.70;;;4.80;99.90;;;;;;4976025;28;20649;-60
2022/01/25 08:24:37;;;;;;;49.83;25.20;;;4.80;99.90;;;;;;4983893;28;20234;-60
2022/01/25 08:27:06;;;;;;;47.77;24.93;;;4.80;99.90;;;;;;4978425;28;20230;-60
2022/01/25 08:29:33;;;;;;;47.83;23.43;;;4.80;99.90;;;;;;4956407;28;20247;-61
2022/01/25 08:32:00;;;;;;;55.73;25.17;;;4.80;99.90;;;;;;4994508;28;20584;-61
2022/01/25 08:34:27;;;;;;;48.63;24.40;;;4.80;99.90;;;;;;4978300;28;20219;-59
2022/01/25 08:36:55;;;;;;;47.83;24.53;;;4.80;99.90;;;;;;4977606;28;20584;-60
2022/01/25 08:39:25;;;;;;;48.17;25.90;;;4.80;99.90;;;;;;4980673;28;20297;-60
2022/01/25 08:41:52;;;;;;;49.67;23.90;;;4.80;99.90;;;;;;4978646;28;20230;-60
2022/01/25 08:44:19;;;;;;;49.97;24.47;;;4.90;99.90;;;;;;4983441;28;20757;-60
2022/01/25 08:46:46;;;;;;;43.27;22.40;;;4.90;99.90;;;;;;4991266;28;20720;-61
2022/01/25 08:49:13;;;;;;;51.20;24.47;;;4.90;99.90;;;;;;4989282;28;20225;-62
2022/01/25 08:51:40;;;;;;;48.73;23.67;;;4.90;99.90;;;;;;4970849;28;20227;-61
2022/01/25 08:54:08;;;;;;;42.73;22.90;;;4.90;99.90;;;;;;4992198;28;20226;-61
2022/01/25 08:56:36;;;;;;;48.67;23.87;;;4.90;99.90;;;;;;4988921;28;20222;-61
2022/01/25 08:59:03;;;;;;;48.53;23.83;;;4.80;99.90;;;;;;4979923;28;20802;-62
2022/01/25 09:01:30;;;;;;;51.83;23.93;;;4.90;99.90;;;;;;4956757;28;20203;-61
2022/01/25 09:03:57;;;;;;;41.97;22.73;;;4.90;99.90;;;;;;4981961;28;20261;-60
2022/01/25 09:06:23;;;;;;;43.30;22.17;;;4.90;99.90;;;;;;4972314;28;20583;-61
2022/01/25 09:08:51;;;;;;;45.50;22.97;;;4.90;99.90;;;;;;4990852;28;20632;-60
2022/01/25 09:11:19;;;;;;;49.60;23.17;;;4.90;99.90;;;;;;4990088;28;20203;-61
2022/01/25 09:13:46;;;;;;;46.03;22.87;;;4.90;99.90;;;;;;4976856;28;20206;-61
2022/01/25 09:16:13;;;;;;;54.40;24.80;;;4.90;99.90;;;;;;4979801;28;20583;-62
2022/01/25 09:18:40;;;;;;;42.90;22.00;;;4.90;99.90;;;;;;4988093;28;20317;-60
2022/01/25 09:21:07;;;;;;;44.40;23.40;;;4.90;99.90;;;;;;4975114;28;25770;-60
2022/01/25 09:23:34;;;;;;;47.83;23.03;;;4.90;99.90;;;;;;4994323;28;20234;-62
2022/01/25 09:26:01;;;;;;;43.23;22.63;;;4.90;99.90;;;;;;4996312;28;20203;-61
2022/01/25 09:28:30;;;;;;;41.37;21.27;;;5.00;99.90;;;;;;4989138;28;20306;-60
2022/01/25 09:30:57;;;;;;;47.47;22.67;;;5.00;99.90;;;;;;4982887;28;20693;-61
2022/01/25 09:33:26;;;;;;;46.80;21.97;;;5.00;99.90;;;;;;4981035;28;20207;-60
2022/01/25 09:35:53;;;;;;;44.47;22.67;;;5.00;99.90;;;;;;4993579;28;20217;-60
2022/01/25 09:38:20;;;;;;;47.73;22.87;;;5.00;99.90;;;;;;4979352;28;20210;-60
2022/01/25 09:40:48;;;;;;;51.17;23.90;;;5.00;99.90;;;;;;4989453;28;20286;-60
2022/01/25 09:43:16;;;;;;;45.37;23.67;;;5.00;99.90;;;;;;4992396;28;20667;-60
2022/01/25 09:45:45;;;;;;;46.57;23.50;;;5.00;99.90;;;;;;4986555;28;20756;-60
2022/01/25 09:48:12;;;;;;;43.10;22.80;;;5.00;99.90;;;;;;4997454;28;20253;-60
2022/01/25 09:50:39;;;;;;;43.70;22.77;;;5.00;99.90;;;;;;4983567;28;20214;-59
2022/01/25 09:53:08;;;;;;;46.97;23.23;;;5.10;99.90;;;;;;4978198;28;20212;-60
2022/01/25 09:55:37;;;;;;;44.57;22.33;;;5.10;99.90;;;;;;4981844;28;20250;-62
2022/01/25 09:58:04;;;;;;;48.80;23.13;;;5.10;99.90;;;;;;4995293;28;20218;-62
2022/01/25 10:00:33;;;;;;;50.27;24.43;;;5.10;99.90;;;;;;4984240;28;20210;-62
2022/01/25 10:03:09;;;;;;;44.83;23.77;;;5.10;99.90;;;;;;4988580;28;20207;-62
2022/01/25 10:05:39;;;;;;;44.30;22.87;;;5.10;99.90;;;;;;4980773;28;20230;-61
2022/01/25 10:08:08;;;;;;;49.07;24.03;;;5.10;99.90;;;;;;4976496;28;20206;-60
2022/01/25 10:10:37;;;;;;;45.83;23.40;;;5.20;99.90;;;;;;4995548;28;21339;-60
2022/01/25 10:13:17;;;;;;;43.97;22.13;;;5.10;99.90;;;;;;4991831;28;20244;-60
2022/01/25 10:15:44;;;;;;;44.60;22.70;;;5.10;99.90;;;;;;4981614;28;20253;-63
2022/01/25 10:18:12;;;;;;;44.63;21.97;;;5.10;99.90;;;;;;4980750;28;20299;-63
2022/01/25 10:20:42;;;;;;;46.90;23.73;;;5.20;99.90;;;;;;4970896;28;20211;-62
2022/01/25 10:23:17;;;;;;;46.70;25.00;;;5.20;99.90;;;;;;4972414;28;20230;-62
2022/01/25 10:25:46;;;;;;;47.50;23.07;;;5.20;99.90;;;;;;4994505;28;20233;-62
2022/01/25 10:28:15;;;;;;;48.77;23.23;;;5.20;99.90;;;;;;4983158;28;20214;-61
2022/01/25 10:30:47;;;;;;;47.10;22.73;;;5.20;99.90;;;;;;4985347;28;20203;-61
2022/01/25 10:33:31;;;;;;;49.20;24.10;;;5.20;99.90;;;;;;4982679;28;20252;-62
2022/01/25 10:36:09;;;;;;;47.17;23.23;;;5.20;99.90;;;;;;4982396;28;20222;-62
2022/01/25 10:38:36;;;;;;;44.60;23.37;;;5.20;99.90;;;;;;4974322;28;20229;-62
2022/01/25 10:41:05;;;;;;;44.57;22.70;;;5.30;99.90;;;;;;4982217;28;20307;-62
2022/01/25 10:43:33;;;;;;;47.33;22.60;;;5.30;99.90;;;;;;4989079;28;20218;-62
2022/01/25 10:46:19;;;;;;;47.17;23.97;;;5.20;99.90;;;;;;4980578;28;20231;-62
2022/01/25 10:48:50;;;;;;;46.97;22.00;;;5.20;99.90;;;;;;4987425;28;20291;-62
2022/01/25 10:51:21;;;;;;;52.50;22.63;;;5.30;99.90;;;;;;4982547;28;20203;-62
2022/01/25 10:54:01;;;;;;;48.30;21.93;;;5.30;99.90;;;;;;4988970;28;20222;-62
2022/01/25 10:56:35;;;;;;;43.70;21.47;;;5.30;99.90;;;;;;5000384;28;20208;-62
2022/01/25 10:59:04;;;;;;;43.70;21.87;;;5.30;99.90;;;;;;4980470;28;20231;-62
2022/01/25 11:01:33;;;;;;;45.03;22.43;;;5.30;99.90;;;;;;4984746;28;20215;-60
2022/01/25 11:04:13;;;;;;;43.20;22.23;;;5.30;99.90;;;;;;4983005;28;20207;-62
2022/01/25 11:06:41;;;;;;;39.20;21.60;;;5.40;99.90;;;;;;4982870;28;21394;-60
2022/01/25 11:09:10;;;;;;;44.90;22.37;;;5.30;99.90;;;;;;4992121;28;20198;-60
2022/01/25 11:11:44;;;;;;;42.70;22.03;;;5.30;99.90;;;;;;4974541;28;20704;-61
2022/01/25 11:16:57;;;;;;;49.33;22.57;;;5.40;99.90;;;;;;4982698;28;20230;-62
2022/01/25 11:19:26;;;;;;;49.80;23.30;;;5.40;99.90;;;;;;4980367;28;20226;-60
2022/01/25 11:21:55;;;;;;;48.73;23.90;;;5.40;99.90;;;;;;4979842;28;20226;-60
2022/01/25 11:24:24;;;;;;;42.10;21.10;;;5.40;99.90;;;;;;4995373;28;20314;-60
2022/01/25 11:26:52;;;;;;;51.20;22.17;;;5.30;99.90;;;;;;4975195;28;20218;-60
2022/01/25 11:29:20;;;;;;;44.17;21.37;;;5.40;99.90;;;;;;4987895;28;20203;-60
2022/01/25 11:31:52;;;;;;;41.90;21.37;;;5.40;99.90;;;;;;4996329;28;20198;-60
2022/01/25 11:34:26;;;;;;;40.47;20.57;;;5.40;99.90;;;;;;4972547;28;20227;-59
2022/01/25 11:36:55;;;;;;;40.80;20.67;;;5.40;99.90;;;;;;4985315;28;20235;-60
2022/01/25 11:39:23;;;;;;;42.97;21.30;;;5.40;99.90;;;;;;4988502;28;20325;-60
2022/01/25 11:41:51;;;;;;;43.57;21.07;;;5.40;99.90;;;;;;4987985;28;20206;-60
2022/01/25 11:44:21;;;;;;;41.23;19.63;;;5.50;99.90;;;;;;4979903;28;20236;-60
2022/01/25 11:46:55;;;;;;;39.37;20.33;;;5.50;99.90;;;;;;4988406;28;20696;-60
2022/01/25 11:49:23;;;;;;;38.20;20.07;;;5.60;99.90;;;;;;4960675;28;20218;-60
2022/01/25 11:52:07;;;;;;;36.77;18.47;;;5.50;99.90;;;;;;4974669;28;20254;-60
2022/01/25 11:54:36;;;;;;;40.37;18.80;;;5.60;99.90;;;;;;4981790;28;20213;-62
2022/01/25 11:57:11;;;;;;;38.27;19.37;;;5.60;99.90;;;;;;4980867;28;20213;-61
2022/01/25 11:59:38;;;;;;;36.83;19.23;;;5.60;99.90;;;;;;4970971;28;20241;-62
2022/01/25 12:02:05;;;;;;;35.13;18.70;;;5.70;99.90;;;;;;4982019;28;21400;-61
2022/01/25 12:04:32;;;;;;;41.93;18.90;;;5.70;99.90;;;;;;4977324;28;20230;-62
2022/01/25 12:07:03;;;;;;;35.60;18.20;;;5.70;99.90;;;;;;4969720;28;20207;-62
2022/01/25 12:09:45;;;;;;;40.47;19.67;;;5.60;99.90;;;;;;4982512;28;20210;-62
2022/01/25 12:12:14;;;;;;;40.77;19.33;;;5.70;99.90;;;;;;4991315;28;20318;-61
2022/01/25 12:14:48;;;;;;;34.43;19.10;;;5.70;99.90;;;;;;4973057;28;20204;-60
2022/01/25 12:17:17;;;;;;;41.20;19.00;;;5.70;99.90;;;;;;4989488;28;20226;-62
2022/01/25 12:19:48;;;;;;;42.77;20.97;;;5.70;99.90;;;;;;4970920;28;20214;-61
2022/01/25 12:22:29;;;;;;;36.90;18.70;;;5.70;99.90;;;;;;4966335;28;20207;-62
2022/01/25 12:25:03;;;;;;;40.50;19.70;;;5.70;99.90;;;;;;4971727;28;20234;-61
2022/01/25 12:27:45;;;;;;;42.30;19.23;;;5.80;99.90;;;;;;4989019;28;20203;-62
2022/01/25 12:30:17;;;;;;;39.17;19.20;;;5.80;99.90;;;;;;4969133;28;20221;-61
2022/01/25 12:33:04;;;;;;;35.40;18.77;;;5.80;99.90;;;;;;4982803;28;20207;-61
2022/01/25 12:35:39;;;;;;;39.20;19.07;;;5.80;99.90;;;;;;4972406;28;20260;-62
2022/01/25 12:38:12;;;;;;;36.30;18.20;;;5.80;99.90;;;;;;4967294;28;20204;-62
2022/01/25 12:40:53;;;;;;;34.73;18.30;;;5.80;99.90;;;;;;4963710;28;20206;-62
2022/01/25 12:43:23;;;;;;;35.83;19.00;;;5.80;99.90;;;;;;4987765;28;20203;-62
2022/01/25 12:45:53;;;;;;;37.87;19.33;;;5.90;99.90;;;;;;4968563;28;20227;-62
2022/01/25 12:48:24;;;;;;;34.80;17.73;;;5.90;99.90;;;;;;4977420;28;20243;-61
2022/01/25 12:50:53;;;;;;;42.57;19.07;;;5.90;99.90;;;;;;4968479;28;20210;-62
2022/01/25 12:53:22;;;;;;;37.00;19.10;;;5.90;99.90;;;;;;4978770;28;20209;-62
2022/01/25 12:55:54;;;;;;;38.53;19.33;;;5.90;99.90;;;;;;4969516;28;20835;-62
2022/01/25 12:58:23;;;;;;;37.17;18.03;;;5.90;99.90;;;;;;4985715;28;20209;-62
2022/01/25 13:00:52;;;;;;;44.97;19.17;;;5.90;99.90;;;;;;4966530;28;20213;-61
2022/01/25 13:03:28;;;;;;;35.83;17.73;;;5.90;99.90;;;;;;4963935;28;20293;-62
2022/01/25 13:05:57;;;;;;;35.80;18.00;;;5.90;99.90;;;;;;4976740;28;20241;-62
2022/01/25 13:08:27;;;;;;;37.80;18.60;;;5.80;99.90;;;;;;4953777;28;20585;-62
2022/01/25 13:11:16;;;;;;;34.80;18.13;;;5.90;99.90;;;;;;4971699;28;20230;-63
2022/01/25 13:13:58;;;;;;;35.93;17.93;;;5.90;99.90;;;;;;4985890;28;20207;-63
2022/01/25 13:16:50;;;;;;;35.10;18.07;;;5.90;99.90;;;;;;4956837;28;20232;-61
2022/01/25 13:19:19;;;;;;;34.63;17.53;;;5.90;99.90;;;;;;4978784;28;20591;-62
2022/01/25 13:21:51;;;;;;;38.13;18.53;;;5.90;99.90;;;;;;4969445;28;20697;-62
2022/01/25 13:24:20;;;;;;;39.27;18.77;;;5.90;99.90;;;;;;4957051;28;20227;-63
2022/01/25 13:26:55;;;;;;;44.07;20.33;;;5.90;99.90;;;;;;4977402;28;20326;-62
2022/01/25 13:32:12;;;;;;;37.47;17.83;;;6.00;99.90;;;;;;4962703;28;21175;-62
2022/01/25 13:34:39;;;;;;;34.47;17.60;;;5.90;99.90;;;;;;4984026;28;20199;-63
2022/01/25 13:37:06;;;;;;;34.70;16.87;;;6.00;99.90;;;;;;4963046;28;20222;-61
2022/01/25 13:39:35;;;;;;;35.87;16.77;;;6.00;99.90;;;;;;4938874;28;20246;-61
2022/01/25 13:42:08;;;;;;;33.80;17.43;;;6.00;99.90;;;;;;4966322;28;20250;-61
2022/01/25 13:47:20;;;;;;;33.40;17.27;;;5.90;99.90;;;;;;4965886;28;20230;-62
2022/01/25 13:49:50;;;;;;;38.47;17.93;;;5.90;99.90;;;;;;4964741;28;20292;-62
2022/01/25 13:52:18;;;;;;;34.93;16.87;;;5.90;99.90;;;;;;4969582;28;20203;-62
2022/01/25 13:54:45;;;;;;;36.80;17.40;;;5.80;99.90;;;;;;4956521;28;20329;-62
2022/01/25 13:57:13;;;;;;;38.83;16.63;;;5.80;99.90;;;;;;4949511;28;20218;-61
2022/01/25 13:59:41;;;;;;;35.43;17.47;;;5.80;99.90;;;;;;4964964;28;20227;-62
2022/01/25 14:02:11;;;;;;;34.73;17.90;;;5.80;99.90;;;;;;4971398;28;20260;-62
2022/01/25 14:04:38;;;;;;;34.50;17.30;;;5.80;99.90;;;;;;4965510;28;22207;-62